sensor_id;sensor_type;location;lat;lon;timestamp;temperature;humidity
12307;DHT22;6216;51.146;7.008;2024-01-06T00:02:10;7.50;99.90
12307;DHT22;6216;51.146;7.008;2024-01-06T00:04:38;7.50;99.90
12307;DHT22;6216;51.146;7.008;2024-01-06T00:07:06;7.50;99.90
12307;DHT22;6216;51.146;7.008;2024-01-06T00:09:33;7.50;99.90
12307;DHT22;6216;51.146;7.008;2024-01-06T00:12:02;7.50;99.90
12307;DHT22;6216;51.146;7.008;2024-01-06T00:14:30;7.50;99.90
12307;DHT22;6216;51.146;7.008;2024-01-06T00:16:57;7.60;99.90
12307;DHT22;6216;51.146;7.008;2024-01-06T00:19:27;7.60;99.90
12307;DHT22;6216;51.146;7.008;2024-01-06T00:21:55;7.60;99.90
12307;DHT22;6216;51.146;7.008;2024-01-06T00:24:22;7.60;99.90
12307;DHT22;6216;51.146;7.008;2024-01-06T00:26:50;7.60;99.90
12307;DHT22;6216;51.146;7.008;2024-01-06T00:29:19;7.60;99.90
12307;DHT22;6216;51.146;7.008;2024-01-06T00:31:46;7.60;99.90
12307;DHT22;6216;51.146;7.008;2024-01-06T00:34:14;7.60;99.90
12307;DHT22;6216;51.146;7.008;2024-01-06T00:36:44;7.50;99.90
12307;DHT22;6216;51.146;7.008;2024-01-06T00:39:12;7.50;99.90
12307;DHT22;6216;51.146;7.008;2024-01-06T00:41:39;7.50;99.90
12307;DHT22;6216;51.146;7.008;2024-01-06T00:44:07;7.50;99.90
12307;DHT22;6216;51.146;7.008;2024-01-06T00:46:35;7.50;99.90
12307;DHT22;6216;51.146;7.008;2024-01-06T00:49:03;7.50;99.90
12307;DHT22;6216;51.146;7.008;2024-01-06T00:51:31;7.60;99.90
12307;DHT22;6216;51.146;7.008;2024-01-06T00:54:03;7.50;99.90
12307;DHT22;6216;51.146;7.008;2024-01-06T00:56:31;7.50;99.90
12307;DHT22;6216;51.146;7.008;2024-01-06T00:58:59;7.40;99.90
12307;DHT22;6216;51.146;7.008;2024-01-06T01:01:27;7.40;99.90
12307;DHT22;6216;51.146;7.008;2024-01-06T01:03:55;7.40;99.90
12307;DHT22;6216;51.146;7.008;2024-01-06T01:06:23;7.40;99.90
12307;DHT22;6216;51.146;7.008;2024-01-06T01:08:51;7.40;99.90
12307;DHT22;6216;51.146;7.008;2024-01-06T01:11:20;7.40;99.90
12307;DHT22;6216;51.146;7.008;2024-01-06T01:13:48;7.40;99.90
12307;DHT22;6216;51.146;7.008;2024-01-06T01:16:16;7.40;99.90
12307;DHT22;6216;51.146;7.008;2024-01-06T01:18:44;7.40;99.90
12307;DHT22;6216;51.146;7.008;2024-01-06T01:21:12;7.50;99.90
12307;DHT22;6216;51.146;7.008;2024-01-06T01:23:40;7.50;99.90
12307;DHT22;6216;51.146;7.008;2024-01-06T01:26:08;7.60;99.90
12307;DHT22;6216;51.146;7.008;2024-01-06T01:28:38;7.50;99.90
12307;DHT22;6216;51.146;7.008;2024-01-06T01:31:05;7.50;99.90
12307;DHT22;6216;51.146;7.008;2024-01-06T01:33:34;7.60;99.90
12307;DHT22;6216;51.146;7.008;2024-01-06T01:36:02;7.50;99.90
12307;DHT22;6216;51.146;7.008;2024-01-06T01:38:30;7.50;99.90
12307;DHT22;6216;51.146;7.008;2024-01-06T01:40:58;7.50;99.90
12307;DHT22;6216;51.146;7.008;2024-01-06T01:43:26;7.50;99.90
12307;DHT22;6216;51.146;7.008;2024-01-06T01:45:57;7.40;99.90
12307;DHT22;6216;51.146;7.008;2024-01-06T01:48:25;7.40;99.90
12307;DHT22;6216;51.146;7.008;2024-01-06T01:50:54;7.50;99.90
12307;DHT22;6216;51.146;7.008;2024-01-06T01:53:22;7.40;99.90
12307;DHT22;6216;51.146;7.008;2024-01-06T01:55:52;7.40;99.90
12307;DHT22;6216;51.146;7.008;2024-01-06T01:58:20;7.40;99.90
12307;DHT22;6216;51.146;7.008;2024-01-06T02:00:48;7.30;99.90
12307;DHT22;6216;51.146;7.008;2024-01-06T02:03:18;7.30;99.90
12307;DHT22;6216;51.146;7.008;2024-01-06T02:05:46;7.30;99.90
12307;DHT22;6216;51.146;7.008;2024-01-06T02:08:14;7.30;99.90
12307;DHT22;6216;51.146;7.008;2024-01-06T02:10:42;7.30;99.90
12307;DHT22;6216;51.146;7.008;2024-01-06T02:13:10;7.30;99.90
12307;DHT22;6216;51.146;7.008;2024-01-06T02:15:38;7.30;99.90
12307;DHT22;6216;51.146;7.008;2024-01-06T02:18:06;7.30;99.90
12307;DHT22;6216;51.146;7.008;2024-01-06T02:20:37;7.30;99.90
12307;DHT22;6216;51.146;7.008;2024-01-06T02:23:06;7.30;99.90
12307;DHT22;6216;51.146;7.008;2024-01-06T02:25:34;7.30;99.90
12307;DHT22;6216;51.146;7.008;2024-01-06T02:28:03;7.30;99.90
12307;DHT22;6216;51.146;7.008;2024-01-06T02:30:31;7.30;99.90
12307;DHT22;6216;51.146;7.008;2024-01-06T02:32:59;7.40;99.90
12307;DHT22;6216;51.146;7.008;2024-01-06T02:35:27;7.30;99.90
12307;DHT22;6216;51.146;7.008;2024-01-06T02:37:55;7.40;99.90
12307;DHT22;6216;51.146;7.008;2024-01-06T02:40:24;7.40;99.90
12307;DHT22;6216;51.146;7.008;2024-01-06T02:42:52;7.40;99.90
12307;DHT22;6216;51.146;7.008;2024-01-06T02:45:20;7.40;99.90
12307;DHT22;6216;51.146;7.008;2024-01-06T02:47:48;7.50;99.90
12307;DHT22;6216;51.146;7.008;2024-01-06T02:50:16;7.40;99.90
12307;DHT22;6216;51.146;7.008;2024-01-06T02:52:44;7.40;99.90
12307;DHT22;6216;51.146;7.008;2024-01-06T02:55:12;7.50;99.90
12307;DHT22;6216;51.146;7.008;2024-01-06T02:57:42;7.50;99.90
12307;DHT22;6216;51.146;7.008;2024-01-06T03:00:10;7.60;99.90
12307;DHT22;6216;51.146;7.008;2024-01-06T03:02:39;7.60;99.90
12307;DHT22;6216;51.146;7.008;2024-01-06T03:05:09;7.50;99.90
12307;DHT22;6216;51.146;7.008;2024-01-06T03:07:38;7.50;99.90
12307;DHT22;6216;51.146;7.008;2024-01-06T03:10:06;7.50;99.90
12307;DHT22;6216;51.146;7.008;2024-01-06T03:12:34;7.50;99.90
12307;DHT22;6216;51.146;7.008;2024-01-06T03:15:03;7.50;99.90
12307;DHT22;6216;51.146;7.008;2024-01-06T03:17:31;7.50;99.90
12307;DHT22;6216;51.146;7.008;2024-01-06T03:19:59;7.50;99.90
12307;DHT22;6216;51.146;7.008;2024-01-06T03:22:27;7.50;99.90
12307;DHT22;6216;51.146;7.008;2024-01-06T03:24:55;7.60;99.90
12307;DHT22;6216;51.146;7.008;2024-01-06T03:27:23;7.60;99.90
12307;DHT22;6216;51.146;7.008;2024-01-06T03:29:51;7.60;99.90
12307;DHT22;6216;51.146;7.008;2024-01-06T03:32:21;7.60;99.90
12307;DHT22;6216;51.146;7.008;2024-01-06T03:34:49;7.60;99.90
12307;DHT22;6216;51.146;7.008;2024-01-06T03:37:17;7.50;99.90
12307;DHT22;6216;51.146;7.008;2024-01-06T03:39:45;7.50;99.90
12307;DHT22;6216;51.146;7.008;2024-01-06T03:42:13;7.50;99.90
12307;DHT22;6216;51.146;7.008;2024-01-06T03:44:41;7.60;99.90
12307;DHT22;6216;51.146;7.008;2024-01-06T03:47:08;7.50;99.90
12307;DHT22;6216;51.146;7.008;2024-01-06T03:49:38;7.50;99.90
12307;DHT22;6216;51.146;7.008;2024-01-06T03:52:06;7.50;99.90
12307;DHT22;6216;51.146;7.008;2024-01-06T03:54:34;7.50;99.90
12307;DHT22;6216;51.146;7.008;2024-01-06T03:57:02;7.50;99.90
12307;DHT22;6216;51.146;7.008;2024-01-06T03:59:30;7.50;99.90
12307;DHT22;6216;51.146;7.008;2024-01-06T04:01:58;7.50;99.90
12307;DHT22;6216;51.146;7.008;2024-01-06T04:04:26;7.50;99.90
12307;DHT22;6216;51.146;7.008;2024-01-06T04:06:55;7.50;99.90
12307;DHT22;6216;51.146;7.008;2024-01-06T04:09:23;7.60;99.90
12307;DHT22;6216;51.146;7.008;2024-01-06T04:11:51;7.60;99.90
12307;DHT22;6216;51.146;7.008;2024-01-06T04:14:19;7.70;99.90
12307;DHT22;6216;51.146;7.008;2024-01-06T04:16:47;7.70;99.90
12307;DHT22;6216;51.146;7.008;2024-01-06T04:19:15;7.70;99.90
12307;DHT22;6216;51.146;7.008;2024-01-06T04:21:43;7.70;99.90
12307;DHT22;6216;51.146;7.008;2024-01-06T04:24:12;7.60;99.90
12307;DHT22;6216;51.146;7.008;2024-01-06T04:26:40;7.50;99.90
12307;DHT22;6216;51.146;7.008;2024-01-06T04:29:11;7.50;99.90
12307;DHT22;6216;51.146;7.008;2024-01-06T04:31:40;7.50;99.90
12307;DHT22;6216;51.146;7.008;2024-01-06T04:34:08;7.60;99.90
12307;DHT22;6216;51.146;7.008;2024-01-06T04:36:36;7.60;99.90
12307;DHT22;6216;51.146;7.008;2024-01-06T04:39:04;7.60;99.90
12307;DHT22;6216;51.146;7.008;2024-01-06T04:41:33;7.60;99.90
12307;DHT22;6216;51.146;7.008;2024-01-06T04:44:01;7.70;99.90
12307;DHT22;6216;51.146;7.008;2024-01-06T04:46:29;7.70;99.90
12307;DHT22;6216;51.146;7.008;2024-01-06T04:48:58;7.70;99.90
12307;DHT22;6216;51.146;7.008;2024-01-06T04:51:26;7.80;99.90
12307;DHT22;6216;51.146;7.008;2024-01-06T04:53:54;7.80;99.90
12307;DHT22;6216;51.146;7.008;2024-01-06T04:56:22;7.60;99.90
12307;DHT22;6216;51.146;7.008;2024-01-06T04:58:51;7.60;99.90
12307;DHT22;6216;51.146;7.008;2024-01-06T05:01:19;7.60;99.90
12307;DHT22;6216;51.146;7.008;2024-01-06T05:03:47;7.50;99.90
12307;DHT22;6216;51.146;7.008;2024-01-06T05:06:15;7.50;99.90
12307;DHT22;6216;51.146;7.008;2024-01-06T05:08:43;7.40;99.90
12307;DHT22;6216;51.146;7.008;2024-01-06T05:11:12;7.30;99.90
12307;DHT22;6216;51.146;7.008;2024-01-06T05:13:40;7.30;99.90
12307;DHT22;6216;51.146;7.008;2024-01-06T05:16:10;7.20;99.90
12307;DHT22;6216;51.146;7.008;2024-01-06T05:18:38;7.20;99.90
12307;DHT22;6216;51.146;7.008;2024-01-06T05:21:06;7.20;99.90
12307;DHT22;6216;51.146;7.008;2024-01-06T05:23:34;7.10;99.90
12307;DHT22;6216;51.146;7.008;2024-01-06T05:26:02;7.10;99.90
12307;DHT22;6216;51.146;7.008;2024-01-06T05:28:30;7.10;99.90
12307;DHT22;6216;51.146;7.008;2024-01-06T05:30:58;7.00;99.90
12307;DHT22;6216;51.146;7.008;2024-01-06T05:33:27;7.00;99.90
12307;DHT22;6216;51.146;7.008;2024-01-06T05:35:55;7.00;99.90
12307;DHT22;6216;51.146;7.008;2024-01-06T05:38:23;7.00;99.90
12307;DHT22;6216;51.146;7.008;2024-01-06T05:40:51;7.00;99.90
12307;DHT22;6216;51.146;7.008;2024-01-06T05:43:19;6.90;99.90
12307;DHT22;6216;51.146;7.008;2024-01-06T05:45:47;6.90;99.90
12307;DHT22;6216;51.146;7.008;2024-01-06T05:48:15;6.80;99.90
12307;DHT22;6216;51.146;7.008;2024-01-06T05:50:45;6.80;99.90
12307;DHT22;6216;51.146;7.008;2024-01-06T05:53:13;6.80;99.90
12307;DHT22;6216;51.146;7.008;2024-01-06T05:55:44;6.60;99.90
12307;DHT22;6216;51.146;7.008;2024-01-06T05:58:13;6.60;99.90
12307;DHT22;6216;51.146;7.008;2024-01-06T06:00:40;6.60;99.90
12307;DHT22;6216;51.146;7.008;2024-01-06T06:03:08;6.70;99.90
12307;DHT22;6216;51.146;7.008;2024-01-06T06:05:36;6.60;99.90
12307;DHT22;6216;51.146;7.008;2024-01-06T06:08:06;6.70;99.90
12307;DHT22;6216;51.146;7.008;2024-01-06T06:10:34;6.70;99.90
12307;DHT22;6216;51.146;7.008;2024-01-06T06:13:18;6.80;99.90
12307;DHT22;6216;51.146;7.008;2024-01-06T06:15:46;6.90;99.90
12307;DHT22;6216;51.146;7.008;2024-01-06T06:18:14;6.90;99.90
12307;DHT22;6216;51.146;7.008;2024-01-06T06:20:43;7.00;99.90
12307;DHT22;6216;51.146;7.008;2024-01-06T06:23:12;7.00;99.90
12307;DHT22;6216;51.146;7.008;2024-01-06T06:25:40;7.00;99.90
12307;DHT22;6216;51.146;7.008;2024-01-06T06:28:08;7.00;99.90
12307;DHT22;6216;51.146;7.008;2024-01-06T06:30:36;7.00;99.90
12307;DHT22;6216;51.146;7.008;2024-01-06T06:33:04;7.10;99.90
12307;DHT22;6216;51.146;7.008;2024-01-06T06:35:32;7.10;99.90
12307;DHT22;6216;51.146;7.008;2024-01-06T06:38:00;7.00;99.90
12307;DHT22;6216;51.146;7.008;2024-01-06T06:40:30;7.10;99.90
12307;DHT22;6216;51.146;7.008;2024-01-06T06:42:58;7.10;99.90
12307;DHT22;6216;51.146;7.008;2024-01-06T06:45:25;7.10;99.90
12307;DHT22;6216;51.146;7.008;2024-01-06T06:47:53;7.20;99.90
12307;DHT22;6216;51.146;7.008;2024-01-06T06:50:21;7.10;99.90
12307;DHT22;6216;51.146;7.008;2024-01-06T06:52:49;7.10;99.90
12307;DHT22;6216;51.146;7.008;2024-01-06T06:55:17;7.10;99.90
12307;DHT22;6216;51.146;7.008;2024-01-06T06:57:47;7.10;99.90
12307;DHT22;6216;51.146;7.008;2024-01-06T07:00:15;7.00;99.90
12307;DHT22;6216;51.146;7.008;2024-01-06T07:02:44;7.00;99.90
12307;DHT22;6216;51.146;7.008;2024-01-06T07:05:12;7.10;99.90
12307;DHT22;6216;51.146;7.008;2024-01-06T07:07:40;7.00;99.90
12307;DHT22;6216;51.146;7.008;2024-01-06T07:10:10;7.00;99.90
12307;DHT22;6216;51.146;7.008;2024-01-06T07:12:38;7.10;99.90
12307;DHT22;6216;51.146;7.008;2024-01-06T07:15:08;7.10;99.90
12307;DHT22;6216;51.146;7.008;2024-01-06T07:17:36;6.90;99.90
12307;DHT22;6216;51.146;7.008;2024-01-06T07:20:06;6.90;99.90
12307;DHT22;6216;51.146;7.008;2024-01-06T07:22:34;7.00;99.90
12307;DHT22;6216;51.146;7.008;2024-01-06T07:25:02;6.90;99.90
12307;DHT22;6216;51.146;7.008;2024-01-06T07:27:30;6.90;99.90
12307;DHT22;6216;51.146;7.008;2024-01-06T07:29:59;6.90;99.90
12307;DHT22;6216;51.146;7.008;2024-01-06T07:32:28;6.90;99.90
12307;DHT22;6216;51.146;7.008;2024-01-06T07:34:56;6.90;99.90
12307;DHT22;6216;51.146;7.008;2024-01-06T07:37:24;6.90;99.90
12307;DHT22;6216;51.146;7.008;2024-01-06T07:39:52;6.90;99.90
12307;DHT22;6216;51.146;7.008;2024-01-06T07:42:20;6.90;99.90
12307;DHT22;6216;51.146;7.008;2024-01-06T07:44:48;6.90;99.90
12307;DHT22;6216;51.146;7.008;2024-01-06T07:47:16;6.90;99.90
12307;DHT22;6216;51.146;7.008;2024-01-06T07:49:46;6.80;99.90
12307;DHT22;6216;51.146;7.008;2024-01-06T07:52:15;6.70;99.90
12307;DHT22;6216;51.146;7.008;2024-01-06T07:54:43;6.70;99.90
12307;DHT22;6216;51.146;7.008;2024-01-06T07:57:11;6.70;99.90
12307;DHT22;6216;51.146;7.008;2024-01-06T07:59:39;6.80;99.90
12307;DHT22;6216;51.146;7.008;2024-01-06T08:02:07;6.80;99.90
12307;DHT22;6216;51.146;7.008;2024-01-06T08:04:35;6.80;99.90
12307;DHT22;6216;51.146;7.008;2024-01-06T08:07:05;6.70;99.90
12307;DHT22;6216;51.146;7.008;2024-01-06T08:09:33;6.70;99.90
12307;DHT22;6216;51.146;7.008;2024-01-06T08:12:02;6.70;99.90
12307;DHT22;6216;51.146;7.008;2024-01-06T08:14:30;6.70;99.90
12307;DHT22;6216;51.146;7.008;2024-01-06T08:16:58;6.70;99.90
12307;DHT22;6216;51.146;7.008;2024-01-06T08:19:26;6.80;99.90
12307;DHT22;6216;51.146;7.008;2024-01-06T08:21:56;6.90;99.90
12307;DHT22;6216;51.146;7.008;2024-01-06T08:24:26;6.90;99.90
12307;DHT22;6216;51.146;7.008;2024-01-06T08:26:53;6.90;99.90
12307;DHT22;6216;51.146;7.008;2024-01-06T08:29:21;6.90;99.90
12307;DHT22;6216;51.146;7.008;2024-01-06T08:31:49;7.00;99.90
12307;DHT22;6216;51.146;7.008;2024-01-06T08:34:19;7.10;99.90
12307;DHT22;6216;51.146;7.008;2024-01-06T08:36:47;7.00;99.90
12307;DHT22;6216;51.146;7.008;2024-01-06T08:39:15;7.00;99.90
12307;DHT22;6216;51.146;7.008;2024-01-06T08:41:44;6.90;99.90
12307;DHT22;6216;51.146;7.008;2024-01-06T08:44:13;6.80;99.90
12307;DHT22;6216;51.146;7.008;2024-01-06T08:46:41;6.80;99.90
12307;DHT22;6216;51.146;7.008;2024-01-06T08:49:09;6.80;99.90
12307;DHT22;6216;51.146;7.008;2024-01-06T08:51:37;6.80;99.90
12307;DHT22;6216;51.146;7.008;2024-01-06T08:54:05;6.80;99.90
12307;DHT22;6216;51.146;7.008;2024-01-06T08:56:34;6.90;99.90
12307;DHT22;6216;51.146;7.008;2024-01-06T08:59:03;6.80;99.90
12307;DHT22;6216;51.146;7.008;2024-01-06T09:01:31;6.80;99.90
12307;DHT22;6216;51.146;7.008;2024-01-06T09:04:01;6.80;99.90
12307;DHT22;6216;51.146;7.008;2024-01-06T09:06:29;6.70;99.90
12307;DHT22;6216;51.146;7.008;2024-01-06T09:08:58;6.70;99.90
12307;DHT22;6216;51.146;7.008;2024-01-06T09:11:25;6.70;99.90
12307;DHT22;6216;51.146;7.008;2024-01-06T09:13:53;6.70;99.90
12307;DHT22;6216;51.146;7.008;2024-01-06T09:16:23;6.70;99.90
12307;DHT22;6216;51.146;7.008;2024-01-06T09:18:51;6.60;99.90
12307;DHT22;6216;51.146;7.008;2024-01-06T09:21:19;6.60;99.90
12307;DHT22;6216;51.146;7.008;2024-01-06T09:23:47;6.60;99.90
12307;DHT22;6216;51.146;7.008;2024-01-06T09:26:14;6.60;99.90
12307;DHT22;6216;51.146;7.008;2024-01-06T09:28:43;6.60;99.90
12307;DHT22;6216;51.146;7.008;2024-01-06T09:31:11;6.70;99.90
12307;DHT22;6216;51.146;7.008;2024-01-06T09:33:41;6.80;99.90
12307;DHT22;6216;51.146;7.008;2024-01-06T09:36:09;6.80;99.90
12307;DHT22;6216;51.146;7.008;2024-01-06T09:38:39;6.90;99.90
12307;DHT22;6216;51.146;7.008;2024-01-06T09:41:06;6.80;99.90
12307;DHT22;6216;51.146;7.008;2024-01-06T09:43:34;6.80;99.90
12307;DHT22;6216;51.146;7.008;2024-01-06T09:46:08;6.70;99.90
12307;DHT22;6216;51.146;7.008;2024-01-06T09:48:41;6.60;99.90
12307;DHT22;6216;51.146;7.008;2024-01-06T09:51:11;6.40;99.90
12307;DHT22;6216;51.146;7.008;2024-01-06T09:53:44;6.40;99.90
12307;DHT22;6216;51.146;7.008;2024-01-06T09:56:15;6.40;99.90
12307;DHT22;6216;51.146;7.008;2024-01-06T09:58:44;6.40;99.90
12307;DHT22;6216;51.146;7.008;2024-01-06T10:01:13;6.50;99.90
12307;DHT22;6216;51.146;7.008;2024-01-06T10:03:44;6.50;99.90
12307;DHT22;6216;51.146;7.008;2024-01-06T10:06:13;6.50;99.90
12307;DHT22;6216;51.146;7.008;2024-01-06T10:08:42;6.50;99.90
12307;DHT22;6216;51.146;7.008;2024-01-06T10:11:10;6.50;99.90
12307;DHT22;6216;51.146;7.008;2024-01-06T10:13:38;6.50;99.90
12307;DHT22;6216;51.146;7.008;2024-01-06T10:16:06;6.60;99.90
12307;DHT22;6216;51.146;7.008;2024-01-06T10:18:34;6.60;99.90
12307;DHT22;6216;51.146;7.008;2024-01-06T10:21:05;6.60;99.90
12307;DHT22;6216;51.146;7.008;2024-01-06T10:23:33;6.60;99.90
12307;DHT22;6216;51.146;7.008;2024-01-06T10:26:01;6.60;99.90
12307;DHT22;6216;51.146;7.008;2024-01-06T10:28:31;6.50;99.90
12307;DHT22;6216;51.146;7.008;2024-01-06T10:30:59;6.40;99.90
12307;DHT22;6216;51.146;7.008;2024-01-06T10:33:26;6.40;99.90
12307;DHT22;6216;51.146;7.008;2024-01-06T10:35:55;6.30;99.90
12307;DHT22;6216;51.146;7.008;2024-01-06T10:38:26;6.30;99.90
12307;DHT22;6216;51.146;7.008;2024-01-06T10:40:58;6.20;99.90
12307;DHT22;6216;51.146;7.008;2024-01-06T10:43:27;6.20;99.90
12307;DHT22;6216;51.146;7.008;2024-01-06T10:45:56;6.30;99.90
12307;DHT22;6216;51.146;7.008;2024-01-06T10:48:25;6.30;99.90
12307;DHT22;6216;51.146;7.008;2024-01-06T10:50:55;6.30;99.90
12307;DHT22;6216;51.146;7.008;2024-01-06T10:53:26;6.40;99.90
12307;DHT22;6216;51.146;7.008;2024-01-06T10:55:54;6.30;99.90
12307;DHT22;6216;51.146;7.008;2024-01-06T10:58:23;6.30;99.90
12307;DHT22;6216;51.146;7.008;2024-01-06T11:00:51;6.20;99.90
12307;DHT22;6216;51.146;7.008;2024-01-06T11:03:19;6.10;99.90
12307;DHT22;6216;51.146;7.008;2024-01-06T11:05:49;6.10;99.90
12307;DHT22;6216;51.146;7.008;2024-01-06T11:08:18;6.10;99.90
12307;DHT22;6216;51.146;7.008;2024-01-06T11:10:48;6.20;99.90
12307;DHT22;6216;51.146;7.008;2024-01-06T11:13:22;6.20;99.90
12307;DHT22;6216;51.146;7.008;2024-01-06T11:15:51;6.20;99.90
12307;DHT22;6216;51.146;7.008;2024-01-06T11:18:33;6.20;99.90
12307;DHT22;6216;51.146;7.008;2024-01-06T11:21:16;6.20;99.90
12307;DHT22;6216;51.146;7.008;2024-01-06T11:23:45;6.20;99.90
12307;DHT22;6216;51.146;7.008;2024-01-06T11:26:15;6.30;99.90
12307;DHT22;6216;51.146;7.008;2024-01-06T11:28:44;6.30;99.90
12307;DHT22;6216;51.146;7.008;2024-01-06T11:31:12;6.30;99.90
12307;DHT22;6216;51.146;7.008;2024-01-06T11:33:41;6.30;99.90
12307;DHT22;6216;51.146;7.008;2024-01-06T11:36:09;6.40;99.90
12307;DHT22;6216;51.146;7.008;2024-01-06T11:38:38;6.40;99.90
12307;DHT22;6216;51.146;7.008;2024-01-06T11:41:06;6.40;99.90
12307;DHT22;6216;51.146;7.008;2024-01-06T11:43:39;6.30;99.90
12307;DHT22;6216;51.146;7.008;2024-01-06T11:46:08;6.20;99.90
12307;DHT22;6216;51.146;7.008;2024-01-06T11:48:36;6.20;99.90
12307;DHT22;6216;51.146;7.008;2024-01-06T11:51:05;6.10;99.90
12307;DHT22;6216;51.146;7.008;2024-01-06T11:53:33;6.10;99.90
12307;DHT22;6216;51.146;7.008;2024-01-06T11:56:01;5.90;99.90
12307;DHT22;6216;51.146;7.008;2024-01-06T11:58:29;5.80;99.90
12307;DHT22;6216;51.146;7.008;2024-01-06T12:00:59;5.80;99.90
12307;DHT22;6216;51.146;7.008;2024-01-06T12:03:27;5.80;99.90
12307;DHT22;6216;51.146;7.008;2024-01-06T12:06:00;5.70;99.90
12307;DHT22;6216;51.146;7.008;2024-01-06T12:08:29;5.70;99.90
12307;DHT22;6216;51.146;7.008;2024-01-06T12:11:04;5.60;99.90
12307;DHT22;6216;51.146;7.008;2024-01-06T12:13:32;5.70;99.90
12307;DHT22;6216;51.146;7.008;2024-01-06T12:16:01;5.70;99.90
12307;DHT22;6216;51.146;7.008;2024-01-06T12:18:29;5.80;99.90
12307;DHT22;6216;51.146;7.008;2024-01-06T12:20:57;5.90;99.90
12307;DHT22;6216;51.146;7.008;2024-01-06T12:23:25;5.80;99.90
12307;DHT22;6216;51.146;7.008;2024-01-06T12:25:54;5.90;99.90
12307;DHT22;6216;51.146;7.008;2024-01-06T12:28:22;5.80;99.90
12307;DHT22;6216;51.146;7.008;2024-01-06T12:30:51;5.90;99.90
12307;DHT22;6216;51.146;7.008;2024-01-06T12:33:21;6.20;99.90
12307;DHT22;6216;51.146;7.008;2024-01-06T12:35:49;6.30;99.90
12307;DHT22;6216;51.146;7.008;2024-01-06T12:38:19;6.10;99.90
12307;DHT22;6216;51.146;7.008;2024-01-06T12:40:47;6.10;99.90
12307;DHT22;6216;51.146;7.008;2024-01-06T12:43:15;6.00;99.90
12307;DHT22;6216;51.146;7.008;2024-01-06T12:45:43;5.90;99.90
12307;DHT22;6216;51.146;7.008;2024-01-06T12:48:11;5.90;99.90
12307;DHT22;6216;51.146;7.008;2024-01-06T12:50:40;5.80;99.90
12307;DHT22;6216;51.146;7.008;2024-01-06T12:53:08;5.80;99.90
12307;DHT22;6216;51.146;7.008;2024-01-06T12:55:38;5.70;99.90
12307;DHT22;6216;51.146;7.008;2024-01-06T12:58:06;5.70;99.90
12307;DHT22;6216;51.146;7.008;2024-01-06T13:00:35;5.60;99.90
12307;DHT22;6216;51.146;7.008;2024-01-06T13:03:03;5.60;99.90
12307;DHT22;6216;51.146;7.008;2024-01-06T13:05:32;5.60;99.90
12307;DHT22;6216;51.146;7.008;2024-01-06T13:08:01;5.60;99.90
12307;DHT22;6216;51.146;7.008;2024-01-06T13:10:30;5.60;99.90
12307;DHT22;6216;51.146;7.008;2024-01-06T13:12:57;5.50;99.90
12307;DHT22;6216;51.146;7.008;2024-01-06T13:15:25;5.50;99.90
12307;DHT22;6216;51.146;7.008;2024-01-06T13:17:53;5.50;99.90
12307;DHT22;6216;51.146;7.008;2024-01-06T13:20:21;5.30;99.90
12307;DHT22;6216;51.146;7.008;2024-01-06T13:22:49;5.30;99.90
12307;DHT22;6216;51.146;7.008;2024-01-06T13:25:19;5.30;99.90
12307;DHT22;6216;51.146;7.008;2024-01-06T13:27:48;5.10;99.90
12307;DHT22;6216;51.146;7.008;2024-01-06T13:30:17;5.10;99.90
12307;DHT22;6216;51.146;7.008;2024-01-06T13:32:45;5.10;99.90
12307;DHT22;6216;51.146;7.008;2024-01-06T13:35:15;5.20;99.90
12307;DHT22;6216;51.146;7.008;2024-01-06T13:37:43;5.10;99.90
12307;DHT22;6216;51.146;7.008;2024-01-06T13:40:12;5.20;99.90
12307;DHT22;6216;51.146;7.008;2024-01-06T13:42:42;5.20;99.90
12307;DHT22;6216;51.146;7.008;2024-01-06T13:45:09;5.20;99.90
12307;DHT22;6216;51.146;7.008;2024-01-06T13:47:37;5.20;99.90
12307;DHT22;6216;51.146;7.008;2024-01-06T13:50:08;5.20;99.90
12307;DHT22;6216;51.146;7.008;2024-01-06T13:52:37;5.20;99.90
12307;DHT22;6216;51.146;7.008;2024-01-06T13:55:05;5.10;99.90
12307;DHT22;6216;51.146;7.008;2024-01-06T13:57:35;5.20;99.90
12307;DHT22;6216;51.146;7.008;2024-01-06T14:00:06;5.20;99.90
12307;DHT22;6216;51.146;7.008;2024-01-06T14:02:35;5.20;99.90
12307;DHT22;6216;51.146;7.008;2024-01-06T14:05:03;5.20;99.90
12307;DHT22;6216;51.146;7.008;2024-01-06T14:07:31;5.10;99.90
12307;DHT22;6216;51.146;7.008;2024-01-06T14:10:00;5.10;99.90
12307;DHT22;6216;51.146;7.008;2024-01-06T14:12:31;5.00;99.90
12307;DHT22;6216;51.146;7.008;2024-01-06T14:14:59;5.00;99.90
12307;DHT22;6216;51.146;7.008;2024-01-06T14:17:29;4.90;99.90
12307;DHT22;6216;51.146;7.008;2024-01-06T14:19:57;4.70;99.90
12307;DHT22;6216;51.146;7.008;2024-01-06T14:22:25;4.60;99.90
12307;DHT22;6216;51.146;7.008;2024-01-06T14:24:54;4.70;99.90
12307;DHT22;6216;51.146;7.008;2024-01-06T14:27:21;4.60;99.90
12307;DHT22;6216;51.146;7.008;2024-01-06T14:29:50;4.70;99.90
12307;DHT22;6216;51.146;7.008;2024-01-06T14:32:20;4.70;99.90
12307;DHT22;6216;51.146;7.008;2024-01-06T14:34:49;4.70;99.90
12307;DHT22;6216;51.146;7.008;2024-01-06T14:37:17;4.80;99.90
12307;DHT22;6216;51.146;7.008;2024-01-06T14:39:45;4.80;99.90
12307;DHT22;6216;51.146;7.008;2024-01-06T14:42:13;4.80;99.90
12307;DHT22;6216;51.146;7.008;2024-01-06T14:44:43;4.90;99.90
12307;DHT22;6216;51.146;7.008;2024-01-06T14:47:10;4.80;99.90
12307;DHT22;6216;51.146;7.008;2024-01-06T14:49:39;4.80;99.90
12307;DHT22;6216;51.146;7.008;2024-01-06T14:52:08;4.90;99.90
12307;DHT22;6216;51.146;7.008;2024-01-06T14:54:36;4.80;99.90
12307;DHT22;6216;51.146;7.008;2024-01-06T14:57:04;4.70;99.90
12307;DHT22;6216;51.146;7.008;2024-01-06T14:59:32;4.70;99.90
12307;DHT22;6216;51.146;7.008;2024-01-06T15:02:03;4.70;99.90
12307;DHT22;6216;51.146;7.008;2024-01-06T15:04:31;4.70;99.90
12307;DHT22;6216;51.146;7.008;2024-01-06T15:06:59;4.80;99.90
12307;DHT22;6216;51.146;7.008;2024-01-06T15:09:28;4.90;99.90
12307;DHT22;6216;51.146;7.008;2024-01-06T15:11:56;4.90;99.90
12307;DHT22;6216;51.146;7.008;2024-01-06T15:14:24;4.90;99.90
12307;DHT22;6216;51.146;7.008;2024-01-06T15:16:52;4.80;99.90
12307;DHT22;6216;51.146;7.008;2024-01-06T15:19:20;4.70;99.90
12307;DHT22;6216;51.146;7.008;2024-01-06T15:21:50;4.70;99.90
12307;DHT22;6216;51.146;7.008;2024-01-06T15:24:18;4.80;99.90
12307;DHT22;6216;51.146;7.008;2024-01-06T15:26:47;4.70;99.90
12307;DHT22;6216;51.146;7.008;2024-01-06T15:29:15;4.80;99.90
12307;DHT22;6216;51.146;7.008;2024-01-06T15:31:43;4.80;99.90
12307;DHT22;6216;51.146;7.008;2024-01-06T15:34:11;4.80;99.90
12307;DHT22;6216;51.146;7.008;2024-01-06T15:36:39;4.90;99.90
12307;DHT22;6216;51.146;7.008;2024-01-06T15:39:07;4.80;99.90
12307;DHT22;6216;51.146;7.008;2024-01-06T15:41:35;5.00;99.90
12307;DHT22;6216;51.146;7.008;2024-01-06T15:44:04;4.90;99.90
12307;DHT22;6216;51.146;7.008;2024-01-06T15:46:32;4.90;99.90
12307;DHT22;6216;51.146;7.008;2024-01-06T15:49:01;4.80;99.90
12307;DHT22;6216;51.146;7.008;2024-01-06T15:51:30;4.80;99.90
12307;DHT22;6216;51.146;7.008;2024-01-06T15:54:00;4.80;99.90
12307;DHT22;6216;51.146;7.008;2024-01-06T15:56:29;4.80;99.90
12307;DHT22;6216;51.146;7.008;2024-01-06T15:59:00;5.00;99.90
12307;DHT22;6216;51.146;7.008;2024-01-06T16:01:31;4.90;99.90
12307;DHT22;6216;51.146;7.008;2024-01-06T16:04:00;4.90;99.90
12307;DHT22;6216;51.146;7.008;2024-01-06T16:06:30;4.80;99.90
12307;DHT22;6216;51.146;7.008;2024-01-06T16:09:03;4.80;99.90
12307;DHT22;6216;51.146;7.008;2024-01-06T16:11:33;4.70;99.90